Latest Weather Observations for Lady Elliot Island

IDQ60801

Issued at 1:32 pm EST Saturday 5 September 2015 (issued every 30 minutes, with the page automatically refreshed every 10 minutes)

About weather observations | Map of weather stations | Latest weather observations for QLD | Other Formats
Station Details ID: 039059 Name: LADY ELLIOT ISLAND Lat: -24.11 Lon: 152.72 Height: 3.6 m
Data from the previous 72 hours. | See also: Recent months at Lady Elliot Island
Date/Time
EST
Temp
°C
App
Temp
°C
Dew
Point
Rel
Hum
%
Delta-T
°C
Wind Press
QNH
hPa
Press
MSL
hPa
Rain
since 9 am
mm
Dir
 
Spd
km/h
Gust
km/h
Spd
kts
Gust
kts
05/01:30pm 22.7 21.5 17.0 70 3.5 SSE 19 28 10 15 1018.0 - 0.0
05/01:00pm 22.4 21.2 17.0 71 3.3 S 19 28 10 15 1018.4 - 0.0
05/12:30pm 22.4 21.3 17.2 72 3.2 SSE 19 26 10 14 1018.7 - 0.0
05/12:00pm 22.1 21.0 17.2 74 3.0 SSE 19 28 10 15 1019.0 1019.0 0.0
05/11:30am 22.2 21.1 17.3 74 3.0 S 19 26 10 14 1019.4 - 0.0
05/11:00am 22.3 21.1 17.1 72 3.2 S 19 30 10 16 1019.9 - 0.0
05/10:30am 21.9 20.3 16.6 72 3.2 SSE 20 28 11 15 1020.2 - 0.0
05/10:00am 21.8 20.1 16.3 71 3.3 S 20 30 11 16 1020.4 - 0.0
05/09:30am 21.0 19.3 16.2 74 2.9 S 20 32 11 17 1020.4 - 0.0
05/09:00am 20.9 19.4 16.2 74 2.8 S 19 32 10 17 1020.5 1020.5 0.0
05/08:30am 20.6 19.2 16.6 78 2.4 S 19 28 10 15 1020.4 - 0.0
05/08:00am 20.1 18.7 16.6 80 2.1 S 19 30 10 16 1020.3 - 0.0
05/07:30am 20.0 18.4 16.0 78 2.4 S 19 30 10 16 1020.0 - 0.0
05/07:00am 19.8 18.2 16.1 79 2.2 S 19 26 10 14 1019.8 - 0.0
05/06:30am 19.6 18.3 15.9 79 2.2 S 17 26 9 14 1019.4 - 0.0
05/06:00am 19.6 18.3 15.9 79 2.2 S 17 22 9 12 1019.1 1019.1 0.0
05/05:30am 19.4 18.6 16.0 81 2.0 S 15 22 8 12 1018.8 - 0.0
05/05:00am 19.5 18.6 15.8 79 2.2 S 15 22 8 12 1018.5 - 0.0
05/04:30am 19.3 18.0 15.8 80 2.1 S 17 26 9 14 1018.2 - 0.0
05/04:00am 19.6 18.2 15.5 77 2.4 S 17 24 9 13 1018.1 - 0.0
05/03:30am 19.7 18.7 15.5 77 2.5 SSE 15 20 8 11 1018.2 - 0.0
05/03:00am 19.7 19.0 15.5 77 2.5 S 13 20 7 11 1018.1 1018.1 0.0
05/02:30am 19.5 18.7 15.2 76 2.5 S 13 19 7 10 1018.4 - 0.0
05/02:00am 19.2 18.4 15.1 77 2.4 SSE 13 20 7 11 1018.5 - 0.0
05/01:30am 19.1 18.6 14.8 76 2.5 SSE 11 17 6 9 1018.9 - 0.0
05/01:00am 19.1 18.2 14.8 76 2.5 SSE 13 19 7 10 1019.1 - 0.0
05/12:30am 19.3 18.3 14.5 74 2.8 SSE 13 20 7 11 1019.3 - 0.0
05/12:00am 19.0 17.8 14.1 73 2.8 SE 13 17 7 9 1019.5 1019.5 0.0
 
Date/Time
EST
Temp
°C
App
Temp
°C
Dew
Point
Rel
Hum
%
Delta-T
°C
Wind Press
QNH
hPa
Press
MSL
hPa
Rain
since 9 am
mm
Dir
 
Spd
km/h
Gust
km/h
Spd
kts
Gust
kts
04/11:30pm 18.9 17.3 14.0 73 2.8 SE 15 19 8 10 1019.8 - 0.0
04/11:00pm 18.8 16.6 13.3 70 3.1 SE 17 22 9 12 1020.0 - 0.0
04/10:30pm 18.9 16.2 13.0 68 3.3 SE 19 26 10 14 1020.3 - 0.0
04/10:00pm 18.8 15.3 12.3 66 3.6 SE 22 28 12 15 1020.1 - 0.0
04/09:30pm 18.9 15.0 12.2 65 3.7 SE 24 32 13 17 1020.0 - 0.0
04/09:00pm 19.0 14.7 12.1 64 3.8 SE 26 32 14 17 1019.7 1019.7 0.0
04/08:30pm 19.1 14.9 11.0 59 4.4 SE 24 32 13 17 1019.8 - 0.0
04/08:00pm 18.9 15.0 12.2 65 3.7 SE 24 32 13 17 1019.4 - 0.0
04/07:30pm 18.9 15.0 12.2 65 3.7 SE 24 32 13 17 1019.1 - 0.0
04/07:00pm 18.9 15.0 12.2 65 3.7 ESE 24 32 13 17 1018.6 - 0.0
04/06:30pm 18.9 14.6 12.2 65 3.7 ESE 26 32 14 17 1018.3 - 0.0
04/06:00pm 18.9 14.7 11.2 61 4.2 ESE 24 30 13 16 1018.0 1018.0 0.0
04/05:30pm 19.1 15.0 11.4 61 4.2 ESE 24 28 13 15 1017.8 - 0.0
04/05:00pm 19.7 15.6 10.0 53 5.2 SE 22 28 12 15 1017.6 - 0.0
04/04:30pm 20.3 16.4 9.4 49 5.8 SE 20 28 11 15 1017.3 - 0.0
04/04:00pm 20.8 17.5 9.6 48 6.0 SSE 17 24 9 13 1016.9 - 0.0
04/03:30pm 20.8 17.8 9.1 47 6.2 SSE 15 19 8 10 1016.5 - 0.0
04/03:00pm 20.8 17.7 8.8 46 6.3 SSE 15 20 8 11 1016.4 1016.4 0.0
04/02:30pm 21.6 18.8 8.7 43 6.8 SSE 13 20 7 11 1016.4 - 0.0
04/02:00pm 21.0 18.2 8.6 45 6.5 S 13 19 7 10 1016.5 - 0.0
04/01:30pm 21.1 17.9 8.3 43 6.7 S 15 20 8 11 1016.7 - 0.0
04/01:00pm 20.8 17.4 7.6 42 6.8 S 15 24 8 13 1017.3 - 0.0
04/12:30pm 20.9 17.3 8.2 44 6.6 S 17 20 9 11 1017.6 - 0.0
04/12:00pm 20.8 16.7 7.8 43 6.7 S 19 24 10 13 1018.0 1018.0 0.0
04/11:30am 21.1 17.4 8.0 43 6.8 S 17 22 9 12 1018.4 - 0.0
04/11:00am 20.6 16.3 8.0 44 6.5 S 20 26 11 14 1018.8 - 0.0
04/10:30am 20.6 16.7 8.5 45 6.3 S 19 26 10 14 1019.0 - 0.0
04/10:00am 20.0 15.4 8.2 46 6.1 S 22 30 12 16 1019.1 - 0.0
04/09:30am 21.0 16.8 7.6 42 6.9 SSW 19 30 10 16 1018.9 - 0.0
04/09:00am 19.8 15.0 7.2 44 6.4 SSW 22 33 12 18 1019.0 1019.0 0.0
04/08:30am 19.6 12.6 6.1 41 6.7 S 32 41 17 22 1018.7 - 0.0
04/08:00am 19.4 13.7 6.6 43 6.4 SSW 26 37 14 20 1018.7 - 0.0
04/07:30am 19.2 13.3 6.0 42 6.5 S 26 37 14 20 1018.4 - 0.0
04/07:00am 19.0 13.7 6.8 45 6.1 SSW 24 37 13 20 1018.3 - 0.0
04/06:30am 18.7 12.7 6.9 46 5.9 SSW 28 37 15 20 1018.0 - 0.0
04/06:00am 18.4 14.1 7.8 50 5.4 S 20 28 11 15 1017.7 1017.7 0.0
04/05:30am 18.4 13.9 8.7 53 5.0 SSW 22 35 12 19 1017.4 - 0.0
04/05:00am 18.9 13.7 8.7 51 5.3 SSW 26 37 14 20 1017.1 - 0.0
04/04:30am 19.2 13.6 8.6 50 5.5 S 28 37 15 20 1016.7 - 0.0
04/04:00am 19.3 13.8 9.0 51 5.4 SSW 28 41 15 22 1016.4 - 0.0
04/03:30am 19.6 14.1 7.7 46 6.1 SSW 26 41 14 22 1016.1 - 0.0
04/03:00am 19.9 15.0 8.6 48 5.9 SSW 24 33 13 18 1016.1 1016.1 0.0
04/02:30am 20.4 14.7 6.5 40 7.0 SSW 26 39 14 21 1016.1 - 0.0
04/02:00am 20.7 14.5 6.1 38 7.3 SSW 28 41 15 22 1016.1 - 0.0
04/01:30am 21.2 15.3 7.4 41 7.1 SSW 28 39 15 21 1016.2 - 0.0
04/01:00am 21.1 17.4 10.0 49 6.0 SSW 20 32 11 17 1016.1 - 0.0
04/12:30am 21.9 17.2 7.6 39 7.4 SSW 22 39 12 21 1016.0 - 0.0
04/12:00am 21.7 18.9 12.5 56 5.2 SSW 19 28 10 15 1015.9 1015.9 0.0
 
Date/Time
EST
Temp
°C
App
Temp
°C
Dew
Point
Rel
Hum
%
Delta-T
°C
Wind Press
QNH
hPa
Press
MSL
hPa
Rain
since 9 am
mm
Dir
 
Spd
km/h
Gust
km/h
Spd
kts
Gust
kts
03/11:30pm 22.2 17.8 10.3 46 6.5 SSW 24 33 13 18 1015.7 - 0.0
03/11:00pm 21.1 20.5 15.6 71 3.3 SW 13 19 7 10 1015.7 - 0.0
03/10:30pm 20.6 20.9 16.1 75 2.7 WSW 9 15 5 8 1015.5 - 0.0
03/10:00pm 21.2 21.5 18.0 82 2.0 W 13 17 7 9 1015.3 - 0.0
03/09:30pm 21.4 21.1 19.2 87 1.4 WNW 19 26 10 14 1015.1 - 0.0
03/09:00pm 21.6 20.8 20.0 91 1.0 WNW 24 32 13 17 1014.9 1014.9 0.0
03/08:30pm 21.7 21.0 20.3 92 0.9 WNW 24 35 13 19 1014.7 - 0.0
03/08:00pm 21.8 21.2 20.4 92 0.9 NW 24 32 13 17 1014.3 - 0.0
03/07:30pm 21.9 21.6 20.3 91 1.0 NW 22 35 12 19 1013.9 - 0.0
03/07:00pm 22.0 20.9 20.3 90 1.1 NW 26 39 14 21 1013.4 - 0.0
03/06:30pm 22.1 20.6 20.2 89 1.2 NNW 28 43 15 23 1012.8 - 0.0
03/06:00pm 22.2 20.7 20.2 88 1.3 NNW 28 43 15 23 1012.5 1012.5 0.0
03/05:30pm 22.3 20.4 20.1 87 1.4 NNW 30 41 16 22 1012.0 - 0.0
03/05:00pm 22.6 20.3 20.1 86 1.6 NNW 32 46 17 25 1011.7 - 0.0
03/04:30pm 22.8 19.1 20.0 84 1.8 NNW 39 52 21 28 1011.3 - 0.0
03/04:00pm 23.1 19.8 20.0 83 2.0 NNW 37 48 20 26 1011.2 - 0.0
03/03:30pm 23.2 19.8 19.8 81 2.2 NNW 37 50 20 27 1011.3 - 0.0
03/03:00pm 23.4 19.9 19.7 80 2.4 NNW 37 50 20 27 1011.2 1011.2 0.0
03/02:48pm 23.4 19.9 19.7 80 2.4 NNW 37 59 20 32 1011.3 - 0.0
03/02:30pm 23.6 20.1 19.7 79 2.5 NNW 37 52 20 28 1011.4 - 0.0
03/02:00pm 23.7 20.2 19.7 78 2.6 NNW 37 50 20 27 1011.8 - 0.0
03/01:30pm 23.8 19.9 19.6 77 2.7 NNW 39 54 21 29 1012.1 - 0.0
03/01:00pm 23.9 19.1 19.7 77 2.7 N 44 54 24 29 1012.2 - 0.0
03/12:30pm 24.3 19.7 19.6 75 3.0 N 43 54 23 29 1012.9 - 0.0
03/12:00pm 24.3 20.0 19.6 75 3.0 N 41 54 22 29 1013.4 1013.4 0.0
03/11:30am 23.5 19.5 19.3 77 2.7 N 39 48 21 26 1014.6 - 0.0
03/11:00am 23.6 20.1 19.5 78 2.6 N 37 46 20 25 1015.0 - 0.0
03/10:30am 23.2 19.6 19.4 79 2.4 N 37 46 20 25 1015.6 - 0.0
03/10:00am 22.9 19.3 19.3 80 2.3 N 37 46 20 25 1016.1 - 0.0
03/09:30am 22.7 19.8 19.2 80 2.2 N 33 43 18 23 1016.5 - 0.0
03/09:00am 22.5 19.7 19.0 80 2.2 N 32 39 17 21 1016.7 1016.7 0.0
03/08:30am 22.1 19.2 18.9 82 2.0 N 32 39 17 21 1016.7 - 0.0
03/08:00am 21.9 19.2 18.5 81 2.1 N 30 37 16 20 1016.7 - 0.0
03/07:30am 21.7 19.0 18.5 82 2.0 N 30 37 16 20 1016.7 - 0.0
03/07:00am 21.5 19.6 18.5 83 1.9 N 26 35 14 19 1016.4 - 0.0
03/06:30am 21.3 18.9 18.2 82 1.9 N 28 37 15 20 1016.3 - 0.0
03/06:00am 21.5 19.8 18.1 81 2.1 N 24 32 13 17 1016.2 1016.2 0.0
03/05:30am 21.7 19.0 17.5 77 2.6 NNW 28 37 15 20 1015.8 - 0.0
03/05:00am 21.5 18.0 17.4 77 2.5 N 32 39 17 21 1014.8 - 0.0
03/04:30am 21.4 17.8 17.2 77 2.6 N 32 39 17 21 1014.3 - 0.0
03/04:00am 21.4 17.7 17.0 76 2.7 N 32 43 17 23 1014.1 - 0.0
03/03:30am 21.5 18.3 17.3 77 2.6 N 30 41 16 22 1013.9 - 0.0
03/03:00am 21.6 18.0 17.2 76 2.7 N 32 41 17 22 1014.3 1014.3 0.0
03/02:30am 21.6 18.5 17.4 77 2.6 N 30 41 16 22 1014.3 - 0.0
03/02:00am 21.6 18.2 17.7 78 2.4 N 32 41 17 22 1014.8 - 0.0
03/01:30am 21.4 18.2 17.3 77 2.5 N 30 41 16 22 1014.8 - 0.0
03/01:00am 21.4 18.1 17.1 76 2.6 N 30 41 16 22 1015.4 - 0.0
03/12:30am 21.5 18.7 17.4 77 2.5 N 28 37 15 20 1015.9 - 0.0
03/12:00am 21.4 18.6 17.3 77 2.5 N 28 37 15 20 1016.4 1016.4 0.0
 
Date/Time
EST
Temp
°C
App
Temp
°C
Dew
Point
Rel
Hum
%
Delta-T
°C
Wind Press
QNH
hPa
Press
MSL
hPa
Rain
since 9 am
mm
Dir
 
Spd
km/h
Gust
km/h
Spd
kts
Gust
kts
02/11:30pm 21.4 18.1 17.1 76 2.6 N 30 41 16 22 1016.5 - 0.0
02/11:00pm 21.4 18.4 16.8 75 2.8 N 28 37 15 20 1016.5 - 0.0
02/10:30pm 21.4 19.5 16.6 74 2.9 N 22 35 12 19 1016.7 - 0.0
02/10:00pm 21.3 20.3 16.5 74 2.9 N 17 26 9 14 1016.7 - 0.0
02/09:30pm 21.1 19.9 16.1 73 3.0 N 17 28 9 15 1016.6 - 0.0
02/09:00pm 21.1 19.3 15.6 71 3.3 N 19 28 10 15 1016.3 1016.3 0.0
02/08:30pm 21.0 19.4 15.1 69 3.5 N 17 26 9 14 1016.7 - 0.0
02/08:00pm 21.0 19.5 14.1 64 4.0 N 15 24 8 13 1016.8 - 0.0
02/07:30pm 20.8 19.1 13.5 63 4.2 N 15 20 8 11 1016.8 - 0.0
02/07:00pm 20.9 19.2 13.6 63 4.2 N 15 22 8 12 1016.5 - 0.0
02/06:30pm 20.8 19.2 13.9 64 4.0 N 15 22 8 12 1016.4 - 0.0
02/06:00pm 21.0 19.1 13.1 60 4.5 N 15 22 8 12 1016.3 1016.3 0.0
02/05:30pm 21.2 18.8 12.5 57 4.9 N 17 26 9 14 1016.4 - 0.0
02/05:00pm 21.8 19.4 12.6 56 5.2 N 17 24 9 13 1016.5 - 0.0
02/04:30pm 22.4 20.3 13.6 57 5.1 N 17 26 9 14 1016.4 - 0.0
02/04:00pm 22.9 20.6 14.0 57 5.2 N 19 28 10 15 1016.5 - 0.0
02/03:30pm 23.2 21.2 14.9 59 4.9 N 19 26 10 14 1016.6 - 0.0
02/03:00pm 23.5 21.1 14.3 56 5.4 N 20 26 11 14 1016.8 1016.8 0.0
02/02:30pm 24.1 21.9 14.5 55 5.7 N 19 24 10 13 1017.1 - 0.0
02/02:00pm 23.7 21.6 14.8 57 5.3 NNW 19 24 10 13 1017.4 - 0.0

Other Formats:

Comma delimited format used in spreadsheet applications
http://www.bom.gov.au/fwo/IDQ60801/IDQ60801.94388.axf

JavaScript Object Notation format (JSON) in row-major order
http://www.bom.gov.au/fwo/IDQ60801/IDQ60801.94388.json